sensor_id;sensor_type;location;lat;lon;timestamp;P1;durP1;ratioP1;P2;durP2;ratioP2
23115;SDS011;11727;52.134;5.052;2022-12-08T00:00:26;2.67;;;1.40;;
23115;SDS011;11727;52.134;5.052;2022-12-08T00:02:51;2.50;;;1.35;;
23115;SDS011;11727;52.134;5.052;2022-12-08T00:05:17;1.75;;;1.17;;
23115;SDS011;11727;52.134;5.052;2022-12-08T00:08:01;9.07;;;1.60;;
23115;SDS011;11727;52.134;5.052;2022-12-08T00:10:45;3.17;;;1.45;;
23115;SDS011;11727;52.134;5.052;2022-12-08T00:13:11;1.63;;;1.15;;
23115;SDS011;11727;52.134;5.052;2022-12-08T00:15:36;2.70;;;1.10;;
23115;SDS011;11727;52.134;5.052;2022-12-08T00:18:02;2.25;;;1.30;;
23115;SDS011;11727;52.134;5.052;2022-12-08T00:20:28;3.05;;;1.35;;
23115;SDS011;11727;52.134;5.052;2022-12-08T00:22:54;4.53;;;1.35;;
23115;SDS011;11727;52.134;5.052;2022-12-08T00:25:19;2.83;;;1.40;;
23115;SDS011;11727;52.134;5.052;2022-12-08T00:27:45;4.32;;;1.10;;
23115;SDS011;11727;52.134;5.052;2022-12-08T00:30:11;3.42;;;1.40;;
23115;SDS011;11727;52.134;5.052;2022-12-08T00:32:36;2.35;;;0.98;;
23115;SDS011;11727;52.134;5.052;2022-12-08T00:35:02;4.78;;;1.10;;
23115;SDS011;11727;52.134;5.052;2022-12-08T00:37:28;1.83;;;0.90;;
23115;SDS011;11727;52.134;5.052;2022-12-08T00:39:53;1.58;;;0.95;;
23115;SDS011;11727;52.134;5.052;2022-12-08T00:42:19;3.92;;;1.33;;
23115;SDS011;11727;52.134;5.052;2022-12-08T00:44:45;1.25;;;0.70;;
23115;SDS011;11727;52.134;5.052;2022-12-08T00:47:12;2.25;;;0.95;;
23115;SDS011;11727;52.134;5.052;2022-12-08T00:49:38;2.17;;;0.75;;
23115;SDS011;11727;52.134;5.052;2022-12-08T00:52:04;3.33;;;1.10;;
23115;SDS011;11727;52.134;5.052;2022-12-08T00:54:30;0.55;;;0.40;;
23115;SDS011;11727;52.134;5.052;2022-12-08T00:56:56;1.20;;;0.60;;
23115;SDS011;11727;52.134;5.052;2022-12-08T00:59:21;3.30;;;0.80;;
23115;SDS011;11727;52.134;5.052;2022-12-08T01:01:47;2.35;;;0.70;;
23115;SDS011;11727;52.134;5.052;2022-12-08T01:04:14;0.88;;;0.50;;
23115;SDS011;11727;52.134;5.052;2022-12-08T01:06:41;3.75;;;0.82;;
23115;SDS011;11727;52.134;5.052;2022-12-08T01:09:07;2.03;;;0.73;;
23115;SDS011;11727;52.134;5.052;2022-12-08T01:11:34;1.67;;;0.50;;
23115;SDS011;11727;52.134;5.052;2022-12-08T01:14:00;0.82;;;0.50;;
23115;SDS011;11727;52.134;5.052;2022-12-08T01:16:27;0.82;;;0.50;;
23115;SDS011;11727;52.134;5.052;2022-12-08T01:18:55;3.72;;;0.40;;
23115;SDS011;11727;52.134;5.052;2022-12-08T01:21:22;0.32;;;0.17;;
23115;SDS011;11727;52.134;5.052;2022-12-08T01:23:48;0.43;;;0.20;;
23115;SDS011;11727;52.134;5.052;2022-12-08T01:26:14;0.45;;;0.30;;
23115;SDS011;11727;52.134;5.052;2022-12-08T01:28:41;0.57;;;0.30;;
23115;SDS011;11727;52.134;5.052;2022-12-08T01:31:14;0.52;;;0.30;;
23115;SDS011;11727;52.134;5.052;2022-12-08T01:33:42;0.43;;;0.17;;
23115;SDS011;11727;52.134;5.052;2022-12-08T01:36:09;1.77;;;0.20;;
23115;SDS011;11727;52.134;5.052;2022-12-08T01:38:43;0.30;;;0.20;;
23115;SDS011;11727;52.134;5.052;2022-12-08T01:41:10;0.80;;;0.35;;
23115;SDS011;11727;52.134;5.052;2022-12-08T01:43:56;1.75;;;0.65;;
23115;SDS011;11727;52.134;5.052;2022-12-08T01:46:28;1.95;;;1.17;;
23115;SDS011;11727;52.134;5.052;2022-12-08T01:49:04;1.65;;;1.30;;
23115;SDS011;11727;52.134;5.052;2022-12-08T01:51:38;2.67;;;1.38;;
23115;SDS011;11727;52.134;5.052;2022-12-08T01:54:32;2.33;;;1.42;;
23115;SDS011;11727;52.134;5.052;2022-12-08T01:57:05;7.72;;;1.88;;
23115;SDS011;11727;52.134;5.052;2022-12-08T01:59:35;2.70;;;1.65;;
23115;SDS011;11727;52.134;5.052;2022-12-08T02:02:05;8.27;;;2.08;;
23115;SDS011;11727;52.134;5.052;2022-12-08T02:06:58;3.42;;;1.90;;
23115;SDS011;11727;52.134;5.052;2022-12-08T02:09:24;3.35;;;2.10;;
23115;SDS011;11727;52.134;5.052;2022-12-08T02:11:50;4.20;;;2.38;;
23115;SDS011;11727;52.134;5.052;2022-12-08T02:14:18;2.13;;;1.50;;
23115;SDS011;11727;52.134;5.052;2022-12-08T02:16:51;5.82;;;2.20;;
23115;SDS011;11727;52.134;5.052;2022-12-08T02:19:39;4.13;;;2.33;;
23115;SDS011;11727;52.134;5.052;2022-12-08T02:22:14;3.20;;;1.92;;
23115;SDS011;11727;52.134;5.052;2022-12-08T02:30:46;4.57;;;2.00;;
23115;SDS011;11727;52.134;5.052;2022-12-08T02:33:41;4.60;;;2.00;;
23115;SDS011;11727;52.134;5.052;2022-12-08T02:36:25;4.03;;;1.77;;
23115;SDS011;11727;52.134;5.052;2022-12-08T02:39:13;3.90;;;1.48;;
23115;SDS011;11727;52.134;5.052;2022-12-08T02:42:16;3.75;;;1.65;;
23115;SDS011;11727;52.134;5.052;2022-12-08T02:44:58;3.15;;;1.42;;
23115;SDS011;11727;52.134;5.052;2022-12-08T02:47:29;2.35;;;1.17;;
23115;SDS011;11727;52.134;5.052;2022-12-08T02:49:57;3.08;;;0.90;;
23115;SDS011;11727;52.134;5.052;2022-12-08T02:54:50;3.28;;;1.70;;
23115;SDS011;11727;52.134;5.052;2022-12-08T03:00:14;4.18;;;0.77;;
23115;SDS011;11727;52.134;5.052;2022-12-08T03:10:46;3.65;;;0.60;;
23115;SDS011;11727;52.134;5.052;2022-12-08T03:13:19;2.00;;;0.50;;
23115;SDS011;11727;52.134;5.052;2022-12-08T03:16:05;1.88;;;0.43;;
23115;SDS011;11727;52.134;5.052;2022-12-08T03:18:34;0.98;;;0.15;;
23115;SDS011;11727;52.134;5.052;2022-12-08T03:21:04;5.30;;;0.35;;
23115;SDS011;11727;52.134;5.052;2022-12-08T03:23:30;0.10;;;0.10;;
23115;SDS011;11727;52.134;5.052;2022-12-08T03:26:03;1.10;;;0.25;;
23115;SDS011;11727;52.134;5.052;2022-12-08T03:28:48;7.63;;;0.30;;
23115;SDS011;11727;52.134;5.052;2022-12-08T03:31:14;0.13;;;0.10;;
23115;SDS011;11727;52.134;5.052;2022-12-08T03:33:44;6.63;;;0.40;;
23115;SDS011;11727;52.134;5.052;2022-12-08T03:36:11;0.95;;;0.20;;
23115;SDS011;11727;52.134;5.052;2022-12-08T03:38:39;0.38;;;0.25;;
23115;SDS011;11727;52.134;5.052;2022-12-08T03:41:09;1.10;;;0.20;;
23115;SDS011;11727;52.134;5.052;2022-12-08T03:43:48;0.68;;;0.10;;
23115;SDS011;11727;52.134;5.052;2022-12-08T03:46:21;0.70;;;0.20;;
23115;SDS011;11727;52.134;5.052;2022-12-08T03:48:48;0.32;;;0.32;;
23115;SDS011;11727;52.134;5.052;2022-12-08T03:51:14;0.10;;;0.10;;
23115;SDS011;11727;52.134;5.052;2022-12-08T03:53:40;0.45;;;0.10;;
23115;SDS011;11727;52.134;5.052;2022-12-08T03:56:14;0.60;;;0.20;;
23115;SDS011;11727;52.134;5.052;2022-12-08T03:59:00;2.70;;;0.50;;
23115;SDS011;11727;52.134;5.052;2022-12-08T04:01:26;1.17;;;0.40;;
23115;SDS011;11727;52.134;5.052;2022-12-08T04:03:52;0.75;;;0.30;;
23115;SDS011;11727;52.134;5.052;2022-12-08T04:06:18;0.10;;;0.10;;
23115;SDS011;11727;52.134;5.052;2022-12-08T04:08:45;0.10;;;0.10;;
23115;SDS011;11727;52.134;5.052;2022-12-08T04:11:11;0.20;;;0.15;;
23115;SDS011;11727;52.134;5.052;2022-12-08T04:13:37;0.55;;;0.30;;
23115;SDS011;11727;52.134;5.052;2022-12-08T04:16:04;0.32;;;0.20;;
23115;SDS011;11727;52.134;5.052;2022-12-08T04:18:30;0.40;;;0.30;;
23115;SDS011;11727;52.134;5.052;2022-12-08T04:20:56;0.20;;;0.20;;
23115;SDS011;11727;52.134;5.052;2022-12-08T04:23:22;2.67;;;0.38;;
23115;SDS011;11727;52.134;5.052;2022-12-08T04:25:48;0.28;;;0.10;;
23115;SDS011;11727;52.134;5.052;2022-12-08T04:28:15;0.45;;;0.13;;
23115;SDS011;11727;52.134;5.052;2022-12-08T04:30:41;4.82;;;0.20;;
23115;SDS011;11727;52.134;5.052;2022-12-08T04:33:06;0.10;;;0.10;;
23115;SDS011;11727;52.134;5.052;2022-12-08T04:35:32;1.98;;;0.22;;
23115;SDS011;11727;52.134;5.052;2022-12-08T04:37:58;0.70;;;0.15;;
23115;SDS011;11727;52.134;5.052;2022-12-08T04:40:24;0.15;;;0.10;;
23115;SDS011;11727;52.134;5.052;2022-12-08T04:42:49;0.10;;;0.10;;
23115;SDS011;11727;52.134;5.052;2022-12-08T04:45:15;0.35;;;0.10;;
23115;SDS011;11727;52.134;5.052;2022-12-08T04:47:41;0.50;;;0.50;;
23115;SDS011;11727;52.134;5.052;2022-12-08T04:50:07;1.17;;;0.20;;
23115;SDS011;11727;52.134;5.052;2022-12-08T04:52:33;0.10;;;0.10;;
23115;SDS011;11727;52.134;5.052;2022-12-08T04:54:59;0.25;;;0.17;;
23115;SDS011;11727;52.134;5.052;2022-12-08T04:57:25;0.65;;;0.20;;
23115;SDS011;11727;52.134;5.052;2022-12-08T04:59:50;1.65;;;0.30;;
23115;SDS011;11727;52.134;5.052;2022-12-08T05:02:16;1.27;;;0.20;;
23115;SDS011;11727;52.134;5.052;2022-12-08T05:04:41;1.45;;;0.17;;
23115;SDS011;11727;52.134;5.052;2022-12-08T05:07:07;1.45;;;0.30;;
23115;SDS011;11727;52.134;5.052;2022-12-08T05:09:33;0.20;;;0.13;;
23115;SDS011;11727;52.134;5.052;2022-12-08T05:11:58;2.45;;;0.20;;
23115;SDS011;11727;52.134;5.052;2022-12-08T05:14:24;1.35;;;0.65;;
23115;SDS011;11727;52.134;5.052;2022-12-08T05:16:49;1.35;;;0.35;;
23115;SDS011;11727;52.134;5.052;2022-12-08T05:19:15;1.95;;;0.88;;
23115;SDS011;11727;52.134;5.052;2022-12-08T05:21:41;3.58;;;1.60;;
23115;SDS011;11727;52.134;5.052;2022-12-08T05:24:06;7.32;;;2.20;;
23115;SDS011;11727;52.134;5.052;2022-12-08T05:26:32;4.95;;;2.20;;
23115;SDS011;11727;52.134;5.052;2022-12-08T05:28:58;9.27;;;2.50;;
23115;SDS011;11727;52.134;5.052;2022-12-08T05:31:23;3.55;;;2.20;;
23115;SDS011;11727;52.134;5.052;2022-12-08T05:33:50;2.92;;;1.58;;
23115;SDS011;11727;52.134;5.052;2022-12-08T05:36:16;2.63;;;0.75;;
23115;SDS011;11727;52.134;5.052;2022-12-08T05:38:43;1.30;;;0.60;;
23115;SDS011;11727;52.134;5.052;2022-12-08T05:41:09;0.65;;;0.45;;
23115;SDS011;11727;52.134;5.052;2022-12-08T05:43:38;0.65;;;0.30;;
23115;SDS011;11727;52.134;5.052;2022-12-08T05:46:07;0.40;;;0.30;;
23115;SDS011;11727;52.134;5.052;2022-12-08T05:48:33;0.70;;;0.60;;
23115;SDS011;11727;52.134;5.052;2022-12-08T05:50:59;2.97;;;0.88;;
23115;SDS011;11727;52.134;5.052;2022-12-08T05:53:25;1.65;;;0.85;;
23115;SDS011;11727;52.134;5.052;2022-12-08T05:55:50;5.43;;;1.45;;
23115;SDS011;11727;52.134;5.052;2022-12-08T05:58:17;3.10;;;1.38;;
23115;SDS011;11727;52.134;5.052;2022-12-08T06:00:44;4.55;;;1.70;;
23115;SDS011;11727;52.134;5.052;2022-12-08T06:03:10;2.60;;;1.00;;
23115;SDS011;11727;52.134;5.052;2022-12-08T06:05:37;4.28;;;1.08;;
23115;SDS011;11727;52.134;5.052;2022-12-08T06:08:05;1.20;;;0.88;;
23115;SDS011;11727;52.134;5.052;2022-12-08T06:10:30;1.70;;;0.73;;
23115;SDS011;11727;52.134;5.052;2022-12-08T06:12:56;2.65;;;0.80;;
23115;SDS011;11727;52.134;5.052;2022-12-08T06:15:21;1.17;;;0.60;;
23115;SDS011;11727;52.134;5.052;2022-12-08T06:17:47;1.65;;;1.02;;
23115;SDS011;11727;52.134;5.052;2022-12-08T06:20:13;2.08;;;0.38;;
23115;SDS011;11727;52.134;5.052;2022-12-08T06:22:39;0.40;;;0.22;;
23115;SDS011;11727;52.134;5.052;2022-12-08T06:25:04;0.95;;;0.30;;
23115;SDS011;11727;52.134;5.052;2022-12-08T06:27:31;2.90;;;0.22;;
23115;SDS011;11727;52.134;5.052;2022-12-08T06:29:57;0.55;;;0.43;;
23115;SDS011;11727;52.134;5.052;2022-12-08T06:32:23;0.20;;;0.20;;
23115;SDS011;11727;52.134;5.052;2022-12-08T06:34:49;0.40;;;0.25;;
23115;SDS011;11727;52.134;5.052;2022-12-08T06:37:15;0.52;;;0.30;;
23115;SDS011;11727;52.134;5.052;2022-12-08T06:39:40;2.00;;;0.52;;
23115;SDS011;11727;52.134;5.052;2022-12-08T06:42:06;0.20;;;0.20;;
23115;SDS011;11727;52.134;5.052;2022-12-08T06:44:50;0.10;;;0.10;;
23115;SDS011;11727;52.134;5.052;2022-12-08T06:47:16;4.25;;;0.52;;
23115;SDS011;11727;52.134;5.052;2022-12-08T06:49:41;0.22;;;0.10;;
23115;SDS011;11727;52.134;5.052;2022-12-08T06:52:07;1.20;;;0.22;;
23115;SDS011;11727;52.134;5.052;2022-12-08T06:54:33;3.67;;;0.32;;
23115;SDS011;11727;52.134;5.052;2022-12-08T06:56:58;6.75;;;0.40;;
23115;SDS011;11727;52.134;5.052;2022-12-08T06:59:24;1.33;;;0.25;;
23115;SDS011;11727;52.134;5.052;2022-12-08T07:01:50;0.65;;;0.20;;
23115;SDS011;11727;52.134;5.052;2022-12-08T07:04:16;0.82;;;0.20;;
23115;SDS011;11727;52.134;5.052;2022-12-08T07:06:45;0.73;;;0.28;;
23115;SDS011;11727;52.134;5.052;2022-12-08T07:09:10;0.75;;;0.25;;
23115;SDS011;11727;52.134;5.052;2022-12-08T07:11:37;0.43;;;0.25;;
23115;SDS011;11727;52.134;5.052;2022-12-08T07:14:03;2.73;;;0.93;;
23115;SDS011;11727;52.134;5.052;2022-12-08T07:16:29;5.53;;;0.50;;
23115;SDS011;11727;52.134;5.052;2022-12-08T07:18:54;1.00;;;0.38;;
23115;SDS011;11727;52.134;5.052;2022-12-08T07:21:20;1.80;;;0.60;;
23115;SDS011;11727;52.134;5.052;2022-12-08T07:23:46;0.90;;;0.20;;
23115;SDS011;11727;52.134;5.052;2022-12-08T07:26:13;1.33;;;0.43;;
23115;SDS011;11727;52.134;5.052;2022-12-08T07:28:39;0.65;;;0.20;;
23115;SDS011;11727;52.134;5.052;2022-12-08T07:31:07;2.08;;;0.55;;
23115;SDS011;11727;52.134;5.052;2022-12-08T07:33:39;0.75;;;0.30;;
23115;SDS011;11727;52.134;5.052;2022-12-08T07:36:05;0.73;;;0.35;;
23115;SDS011;11727;52.134;5.052;2022-12-08T07:38:31;1.17;;;0.20;;
23115;SDS011;11727;52.134;5.052;2022-12-08T07:40:57;2.85;;;0.63;;
23115;SDS011;11727;52.134;5.052;2022-12-08T07:43:22;0.45;;;0.28;;
23115;SDS011;11727;52.134;5.052;2022-12-08T07:45:48;0.50;;;0.28;;
23115;SDS011;11727;52.134;5.052;2022-12-08T07:48:14;0.32;;;0.20;;
23115;SDS011;11727;52.134;5.052;2022-12-08T07:50:40;3.83;;;0.28;;
23115;SDS011;11727;52.134;5.052;2022-12-08T07:53:06;1.05;;;0.28;;
23115;SDS011;11727;52.134;5.052;2022-12-08T07:55:32;1.70;;;0.38;;
23115;SDS011;11727;52.134;5.052;2022-12-08T07:57:58;0.60;;;0.25;;
23115;SDS011;11727;52.134;5.052;2022-12-08T08:00:24;2.63;;;0.68;;
23115;SDS011;11727;52.134;5.052;2022-12-08T08:02:49;1.58;;;0.35;;
23115;SDS011;11727;52.134;5.052;2022-12-08T08:05:15;3.67;;;1.00;;
23115;SDS011;11727;52.134;5.052;2022-12-08T08:07:40;1.83;;;0.40;;
23115;SDS011;11727;52.134;5.052;2022-12-08T08:10:07;2.28;;;0.65;;
23115;SDS011;11727;52.134;5.052;2022-12-08T08:12:35;4.68;;;0.60;;
23115;SDS011;11727;52.134;5.052;2022-12-08T08:15:02;2.07;;;0.37;;
23115;SDS011;11727;52.134;5.052;2022-12-08T08:17:31;3.72;;;0.32;;
23115;SDS011;11727;52.134;5.052;2022-12-08T08:19:57;0.85;;;0.30;;
23115;SDS011;11727;52.134;5.052;2022-12-08T08:22:23;3.72;;;0.40;;
23115;SDS011;11727;52.134;5.052;2022-12-08T08:24:49;0.50;;;0.25;;
23115;SDS011;11727;52.134;5.052;2022-12-08T08:27:15;0.65;;;0.30;;
23115;SDS011;11727;52.134;5.052;2022-12-08T08:29:40;4.43;;;0.40;;
23115;SDS011;11727;52.134;5.052;2022-12-08T08:32:06;1.02;;;0.30;;
23115;SDS011;11727;52.134;5.052;2022-12-08T08:34:31;0.22;;;0.20;;
23115;SDS011;11727;52.134;5.052;2022-12-08T08:36:57;1.50;;;0.30;;
23115;SDS011;11727;52.134;5.052;2022-12-08T08:39:23;0.20;;;0.20;;
23115;SDS011;11727;52.134;5.052;2022-12-08T08:41:48;0.73;;;0.30;;
23115;SDS011;11727;52.134;5.052;2022-12-08T08:44:14;0.43;;;0.20;;
23115;SDS011;11727;52.134;5.052;2022-12-08T08:46:40;1.17;;;0.40;;
23115;SDS011;11727;52.134;5.052;2022-12-08T08:49:05;3.20;;;0.52;;
23115;SDS011;11727;52.134;5.052;2022-12-08T08:51:31;0.20;;;0.20;;
23115;SDS011;11727;52.134;5.052;2022-12-08T08:53:57;2.70;;;0.93;;
23115;SDS011;11727;52.134;5.052;2022-12-08T08:56:22;1.55;;;0.57;;
23115;SDS011;11727;52.134;5.052;2022-12-08T08:58:48;0.63;;;0.38;;
23115;SDS011;11727;52.134;5.052;2022-12-08T09:01:16;3.83;;;0.47;;
23115;SDS011;11727;52.134;5.052;2022-12-08T09:03:44;0.88;;;0.30;;
23115;SDS011;11727;52.134;5.052;2022-12-08T09:06:10;3.33;;;0.30;;
23115;SDS011;11727;52.134;5.052;2022-12-08T09:08:37;0.23;;;0.20;;
23115;SDS011;11727;52.134;5.052;2022-12-08T09:11:03;0.43;;;0.30;;
23115;SDS011;11727;52.134;5.052;2022-12-08T09:13:28;0.65;;;0.20;;
23115;SDS011;11727;52.134;5.052;2022-12-08T09:15:54;0.20;;;0.20;;
23115;SDS011;11727;52.134;5.052;2022-12-08T09:18:19;1.00;;;0.25;;
23115;SDS011;11727;52.134;5.052;2022-12-08T09:20:45;0.17;;;0.13;;
23115;SDS011;11727;52.134;5.052;2022-12-08T09:23:11;3.28;;;0.60;;
23115;SDS011;11727;52.134;5.052;2022-12-08T09:25:36;1.67;;;0.20;;
23115;SDS011;11727;52.134;5.052;2022-12-08T09:28:02;4.03;;;0.38;;
23115;SDS011;11727;52.134;5.052;2022-12-08T09:30:27;1.38;;;0.45;;
23115;SDS011;11727;52.134;5.052;2022-12-08T09:32:53;0.47;;;0.20;;
23115;SDS011;11727;52.134;5.052;2022-12-08T09:35:19;0.90;;;0.50;;
23115;SDS011;11727;52.134;5.052;2022-12-08T09:37:44;4.50;;;0.30;;
23115;SDS011;11727;52.134;5.052;2022-12-08T09:40:10;0.25;;;0.13;;
23115;SDS011;11727;52.134;5.052;2022-12-08T09:45:22;1.45;;;0.57;;
23115;SDS011;11727;52.134;5.052;2022-12-08T09:48:03;1.23;;;0.52;;
23115;SDS011;11727;52.134;5.052;2022-12-08T09:50:44;0.73;;;0.20;;
23115;SDS011;11727;52.134;5.052;2022-12-08T10:01:27;0.45;;;0.28;;
23115;SDS011;11727;52.134;5.052;2022-12-08T10:03:55;1.75;;;0.40;;
23115;SDS011;11727;52.134;5.052;2022-12-08T10:06:27;1.15;;;0.50;;
23115;SDS011;11727;52.134;5.052;2022-12-08T10:14:39;1.98;;;0.80;;
23115;SDS011;11727;52.134;5.052;2022-12-08T10:17:28;7.32;;;1.77;;
23115;SDS011;11727;52.134;5.052;2022-12-08T10:19:56;2.17;;;1.30;;
23115;SDS011;11727;52.134;5.052;2022-12-08T10:22:25;6.03;;;1.50;;
23115;SDS011;11727;52.134;5.052;2022-12-08T10:25:19;2.47;;;1.23;;
23115;SDS011;11727;52.134;5.052;2022-12-08T10:27:51;1.80;;;1.08;;
23115;SDS011;11727;52.134;5.052;2022-12-08T10:30:19;7.95;;;1.35;;
23115;SDS011;11727;52.134;5.052;2022-12-08T10:32:50;2.28;;;1.08;;
23115;SDS011;11727;52.134;5.052;2022-12-08T10:35:17;2.45;;;1.15;;
23115;SDS011;11727;52.134;5.052;2022-12-08T10:37:55;1.88;;;1.13;;
23115;SDS011;11727;52.134;5.052;2022-12-08T10:40:28;3.28;;;0.93;;
23115;SDS011;11727;52.134;5.052;2022-12-08T10:43:01;3.17;;;1.50;;
23115;SDS011;11727;52.134;5.052;2022-12-08T10:53:02;1.65;;;0.93;;
23115;SDS011;11727;52.134;5.052;2022-12-08T10:58:22;3.55;;;0.80;;
23115;SDS011;11727;52.134;5.052;2022-12-08T11:00:53;4.82;;;0.80;;
23115;SDS011;11727;52.134;5.052;2022-12-08T11:03:34;7.07;;;0.90;;
23115;SDS011;11727;52.134;5.052;2022-12-08T11:06:17;2.03;;;0.73;;
23115;SDS011;11727;52.134;5.052;2022-12-08T11:08:46;0.45;;;0.30;;
23115;SDS011;11727;52.134;5.052;2022-12-08T11:11:20;1.05;;;0.50;;
23115;SDS011;11727;52.134;5.052;2022-12-08T11:13:47;1.80;;;1.20;;
23115;SDS011;11727;52.134;5.052;2022-12-08T11:16:15;1.58;;;0.52;;
23115;SDS011;11727;52.134;5.052;2022-12-08T11:18:43;2.80;;;0.60;;
23115;SDS011;11727;52.134;5.052;2022-12-08T11:21:15;0.70;;;0.50;;
23115;SDS011;11727;52.134;5.052;2022-12-08T11:23:46;3.80;;;0.65;;
23115;SDS011;11727;52.134;5.052;2022-12-08T11:26:25;1.35;;;0.63;;
23115;SDS011;11727;52.134;5.052;2022-12-08T11:28:55;1.08;;;0.82;;
23115;SDS011;11727;52.134;5.052;2022-12-08T11:31:24;0.93;;;0.60;;
23115;SDS011;11727;52.134;5.052;2022-12-08T11:33:57;2.83;;;1.35;;
23115;SDS011;11727;52.134;5.052;2022-12-08T11:36:24;1.83;;;0.93;;
23115;SDS011;11727;52.134;5.052;2022-12-08T11:38:56;3.30;;;1.08;;
23115;SDS011;11727;52.134;5.052;2022-12-08T11:41:26;1.85;;;1.08;;
23115;SDS011;11727;52.134;5.052;2022-12-08T11:44:12;1.25;;;0.77;;
23115;SDS011;11727;52.134;5.052;2022-12-08T11:47:01;1.42;;;0.90;;
23115;SDS011;11727;52.134;5.052;2022-12-08T11:49:38;7.80;;;1.30;;
23115;SDS011;11727;52.134;5.052;2022-12-08T11:54:52;4.75;;;1.80;;
23115;SDS011;11727;52.134;5.052;2022-12-08T11:57:27;2.67;;;1.40;;
23115;SDS011;11727;52.134;5.052;2022-12-08T11:59:55;4.18;;;1.48;;
23115;SDS011;11727;52.134;5.052;2022-12-08T12:02:25;4.78;;;1.70;;
23115;SDS011;11727;52.134;5.052;2022-12-08T12:05:04;9.55;;;1.60;;
23115;SDS011;11727;52.134;5.052;2022-12-08T12:10:46;2.22;;;1.58;;
23115;SDS011;11727;52.134;5.052;2022-12-08T12:13:35;2.03;;;1.13;;
23115;SDS011;11727;52.134;5.052;2022-12-08T12:16:22;5.50;;;1.15;;
23115;SDS011;11727;52.134;5.052;2022-12-08T12:19:11;2.25;;;1.27;;
23115;SDS011;11727;52.134;5.052;2022-12-08T12:21:44;1.48;;;0.80;;
23115;SDS011;11727;52.134;5.052;2022-12-08T12:24:15;1.80;;;1.20;;
23115;SDS011;11727;52.134;5.052;2022-12-08T12:26:57;2.28;;;1.17;;
23115;SDS011;11727;52.134;5.052;2022-12-08T12:29:27;3.90;;;1.02;;
23115;SDS011;11727;52.134;5.052;2022-12-08T12:31:56;1.67;;;0.85;;
23115;SDS011;11727;52.134;5.052;2022-12-08T12:34:27;3.88;;;1.70;;
23115;SDS011;11727;52.134;5.052;2022-12-08T12:37:23;1.52;;;1.00;;
23115;SDS011;11727;52.134;5.052;2022-12-08T12:40:01;2.50;;;1.10;;
23115;SDS011;11727;52.134;5.052;2022-12-08T12:42:40;1.23;;;0.57;;
23115;SDS011;11727;52.134;5.052;2022-12-08T12:53:04;1.60;;;0.80;;
23115;SDS011;11727;52.134;5.052;2022-12-08T13:03:39;1.25;;;0.82;;
23115;SDS011;11727;52.134;5.052;2022-12-08T13:06:05;1.52;;;0.95;;
23115;SDS011;11727;52.134;5.052;2022-12-08T13:08:36;2.80;;;1.25;;
23115;SDS011;11727;52.134;5.052;2022-12-08T13:11:06;2.28;;;1.35;;
23115;SDS011;11727;52.134;5.052;2022-12-08T13:13:37;2.47;;;1.48;;
23115;SDS011;11727;52.134;5.052;2022-12-08T13:16:19;6.10;;;1.30;;
23115;SDS011;11727;52.134;5.052;2022-12-08T13:18:51;4.78;;;1.08;;
23115;SDS011;11727;52.134;5.052;2022-12-08T13:21:22;1.17;;;0.93;;
23115;SDS011;11727;52.134;5.052;2022-12-08T13:26:43;1.85;;;1.08;;
23115;SDS011;11727;52.134;5.052;2022-12-08T13:29:16;2.88;;;1.45;;
23115;SDS011;11727;52.134;5.052;2022-12-08T13:31:44;2.15;;;1.50;;
23115;SDS011;11727;52.134;5.052;2022-12-08T13:34:16;2.10;;;1.45;;
23115;SDS011;11727;52.134;5.052;2022-12-08T13:36:55;2.28;;;1.40;;
23115;SDS011;11727;52.134;5.052;2022-12-08T13:42:23;1.85;;;1.33;;
23115;SDS011;11727;52.134;5.052;2022-12-08T13:45:23;2.50;;;1.60;;
23115;SDS011;11727;52.134;5.052;2022-12-08T13:48:12;3.75;;;1.38;;
23115;SDS011;11727;52.134;5.052;2022-12-08T13:51:01;2.92;;;1.25;;
23115;SDS011;11727;52.134;5.052;2022-12-08T13:53:35;0.98;;;0.50;;
23115;SDS011;11727;52.134;5.052;2022-12-08T13:56:04;0.90;;;0.52;;
23115;SDS011;11727;52.134;5.052;2022-12-08T13:58:32;0.85;;;0.40;;
23115;SDS011;11727;52.134;5.052;2022-12-08T14:06:16;0.32;;;0.30;;
23115;SDS011;11727;52.134;5.052;2022-12-08T14:08:45;0.60;;;0.30;;
23115;SDS011;11727;52.134;5.052;2022-12-08T14:11:20;0.70;;;0.65;;
23115;SDS011;11727;52.134;5.052;2022-12-08T14:14:07;0.40;;;0.25;;
23115;SDS011;11727;52.134;5.052;2022-12-08T14:16:55;0.22;;;0.22;;
23115;SDS011;11727;52.134;5.052;2022-12-08T14:19:28;0.57;;;0.30;;
23115;SDS011;11727;52.134;5.052;2022-12-08T14:21:59;0.68;;;0.30;;
23115;SDS011;11727;52.134;5.052;2022-12-08T14:24:27;1.60;;;0.45;;
23115;SDS011;11727;52.134;5.052;2022-12-08T14:26:59;1.10;;;0.40;;
23115;SDS011;11727;52.134;5.052;2022-12-08T14:32:19;0.73;;;0.40;;
23115;SDS011;11727;52.134;5.052;2022-12-08T14:35:01;2.22;;;0.63;;
23115;SDS011;11727;52.134;5.052;2022-12-08T14:37:46;1.80;;;0.40;;
23115;SDS011;11727;52.134;5.052;2022-12-08T14:50:53;1.38;;;0.98;;
23115;SDS011;11727;52.134;5.052;2022-12-08T14:53:26;0.90;;;0.65;;
23115;SDS011;11727;52.134;5.052;2022-12-08T14:55:55;1.55;;;1.10;;
23115;SDS011;11727;52.134;5.052;2022-12-08T14:58:25;1.88;;;1.30;;
23115;SDS011;11727;52.134;5.052;2022-12-08T15:00:54;2.22;;;1.17;;
23115;SDS011;11727;52.134;5.052;2022-12-08T15:03:22;1.98;;;1.30;;
23115;SDS011;11727;52.134;5.052;2022-12-08T15:05:51;2.45;;;1.63;;
23115;SDS011;11727;52.134;5.052;2022-12-08T15:08:20;2.80;;;0.70;;
23115;SDS011;11727;52.134;5.052;2022-12-08T15:10:45;5.85;;;1.20;;
23115;SDS011;11727;52.134;5.052;2022-12-08T15:13:31;0.85;;;0.68;;
23115;SDS011;11727;52.134;5.052;2022-12-08T15:15:57;3.53;;;1.50;;
23115;SDS011;11727;52.134;5.052;2022-12-08T15:20:59;3.22;;;1.00;;
23115;SDS011;11727;52.134;5.052;2022-12-08T15:23:28;1.25;;;0.85;;
23115;SDS011;11727;52.134;5.052;2022-12-08T15:25:57;1.70;;;0.80;;
23115;SDS011;11727;52.134;5.052;2022-12-08T15:28:24;1.75;;;1.10;;
23115;SDS011;11727;52.134;5.052;2022-12-08T15:30:51;2.10;;;1.40;;
23115;SDS011;11727;52.134;5.052;2022-12-08T15:33:18;3.83;;;1.15;;
23115;SDS011;11727;52.134;5.052;2022-12-08T15:35:43;2.03;;;1.08;;
23115;SDS011;11727;52.134;5.052;2022-12-08T15:38:18;8.90;;;1.15;;
23115;SDS011;11727;52.134;5.052;2022-12-08T15:40:49;1.42;;;0.82;;
23115;SDS011;11727;52.134;5.052;2022-12-08T15:43:15;1.60;;;0.87;;
23115;SDS011;11727;52.134;5.052;2022-12-08T15:45:41;3.72;;;1.02;;
23115;SDS011;11727;52.134;5.052;2022-12-08T15:48:08;3.10;;;1.38;;
23115;SDS011;11727;52.134;5.052;2022-12-08T15:50:48;1.13;;;0.73;;
23115;SDS011;11727;52.134;5.052;2022-12-08T15:53:14;1.65;;;0.68;;
23115;SDS011;11727;52.134;5.052;2022-12-08T15:55:40;0.80;;;0.60;;
23115;SDS011;11727;52.134;5.052;2022-12-08T15:58:07;5.63;;;1.38;;
23115;SDS011;11727;52.134;5.052;2022-12-08T16:00:45;2.83;;;1.83;;
23115;SDS011;11727;52.134;5.052;2022-12-08T16:03:24;3.13;;;1.70;;
23115;SDS011;11727;52.134;5.052;2022-12-08T16:05:54;4.82;;;2.47;;
23115;SDS011;11727;52.134;5.052;2022-12-08T16:10:47;3.00;;;1.80;;
23115;SDS011;11727;52.134;5.052;2022-12-08T16:13:16;3.10;;;1.58;;
23115;SDS011;11727;52.134;5.052;2022-12-08T16:16:02;5.88;;;2.88;;
23115;SDS011;11727;52.134;5.052;2022-12-08T16:18:38;4.25;;;2.03;;
23115;SDS011;11727;52.134;5.052;2022-12-08T16:21:04;2.58;;;1.65;;
23115;SDS011;11727;52.134;5.052;2022-12-08T16:23:30;6.95;;;2.45;;
23115;SDS011;11727;52.134;5.052;2022-12-08T16:25:56;4.93;;;2.85;;
23115;SDS011;11727;52.134;5.052;2022-12-08T16:28:23;2.83;;;1.65;;
23115;SDS011;11727;52.134;5.052;2022-12-08T16:30:49;8.05;;;1.52;;
23115;SDS011;11727;52.134;5.052;2022-12-08T16:33:14;2.65;;;1.38;;
23115;SDS011;11727;52.134;5.052;2022-12-08T16:35:40;2.63;;;1.55;;
23115;SDS011;11727;52.134;5.052;2022-12-08T16:38:06;5.13;;;1.80;;
23115;SDS011;11727;52.134;5.052;2022-12-08T16:40:35;3.30;;;1.48;;
23115;SDS011;11727;52.134;5.052;2022-12-08T16:43:23;3.75;;;1.25;;